地図

経路データ

SID SEASON NUMBER BASIN SUBBASIN NAME ISO_TIME NATURE LAT LON WMO_WIND WMO_PRES WMO_AGENCY TRACK_TYPE DIST2LAND LANDFALL IFLAG USA_AGENCY USA_ATCF_ID USA_LAT USA_LON USA_RECORD USA_STATUS USA_WIND USA_PRES USA_SSHS USA_R34_NE USA_R34_SE USA_R34_SW USA_R34_NW USA_R50_NE USA_R50_SE USA_R50_SW USA_R50_NW USA_R64_NE USA_R64_SE USA_R64_SW USA_R64_NW USA_POCI USA_ROCI USA_RMW USA_EYE TOKYO_LAT TOKYO_LON TOKYO_GRADE TOKYO_WIND TOKYO_PRES TOKYO_R50_DIR TOKYO_R50_LONG TOKYO_R50_SHORT TOKYO_R30_DIR TOKYO_R30_LONG TOKYO_R30_SHORT TOKYO_LAND CMA_LAT CMA_LON CMA_CAT CMA_WIND CMA_PRES HKO_LAT HKO_LON HKO_CAT HKO_WIND HKO_PRES NEWDELHI_LAT NEWDELHI_LON NEWDELHI_GRADE NEWDELHI_WIND NEWDELHI_PRES NEWDELHI_CI NEWDELHI_DP NEWDELHI_POCI REUNION_LAT REUNION_LON REUNION_TYPE REUNION_WIND REUNION_PRES REUNION_TNUM REUNION_CI REUNION_RMW REUNION_R34_NE REUNION_R34_SE REUNION_R34_SW REUNION_R34_NW REUNION_R50_NE REUNION_R50_SE REUNION_R50_SW REUNION_R50_NW REUNION_R64_NE REUNION_R64_SE REUNION_R64_SW REUNION_R64_NW BOM_LAT BOM_LON BOM_TYPE BOM_WIND BOM_PRES BOM_TNUM BOM_CI BOM_RMW BOM_R34_NE BOM_R34_SE BOM_R34_SW BOM_R34_NW BOM_R50_NE BOM_R50_SE BOM_R50_SW BOM_R50_NW BOM_R64_NE BOM_R64_SE BOM_R64_SW BOM_R64_NW BOM_ROCI BOM_POCI BOM_EYE BOM_POS_METHOD BOM_PRES_METHOD NADI_LAT NADI_LON NADI_CAT NADI_WIND NADI_PRES WELLINGTON_LAT WELLINGTON_LON WELLINGTON_WIND WELLINGTON_PRES DS824_LAT DS824_LON DS824_STAGE DS824_WIND DS824_PRES TD9636_LAT TD9636_LON TD9636_STAGE TD9636_WIND TD9636_PRES TD9635_LAT TD9635_LON TD9635_WIND TD9635_PRES TD9635_ROCI NEUMANN_LAT NEUMANN_LON NEUMANN_CLASS NEUMANN_WIND NEUMANN_PRES MLC_LAT MLC_LON MLC_CLASS MLC_WIND MLC_PRES USA_GUST BOM_GUST BOM_GUST_PER REUNION_GUST REUNION_GUST_PER USA_SEAHGT USA_SEARAD_NE USA_SEARAD_SE USA_SEARAD_SW USA_SEARAD_NW STORM_SPEED STORM_DIR
1985040S17054 1985 18 SI MM ESITERA 1985-02-09 09:00:00 TS -16.8138 53.9658 spur-split 405 390 ______________ -1 5 224
1985040S17054 1985 18 SI MM ESITERA 1985-02-09 12:00:00 TS -16.9998 53.7753 36 991 reunion spur-split 395 380 _____O________ -1 -17.0000 53.8000 3 36 991 3.00000 3.00000 5 230
1985040S17054 1985 18 SI MM ESITERA 1985-02-09 15:00:00 TS -17.1471 53.5446 spur-split 371 356 _____P________ -1 -17.1051 53.5451 3 32 994 5 241
1985040S17054 1985 18 SI MM ESITERA 1985-02-09 18:00:00 TS -17.2500 53.3000 28 997 reunion spur-split 356 331 _____O____O___ -1 -17.2000 53.3000 2 28 997 2.50000 2.50000 -17.3000 53.3000 1 25 5 253
1985040S17054 1985 18 SI MM ESITERA 1985-02-09 21:00:00 TS -17.3051 53.0175 spur-split 331 303 _____P____P___ -1 -17.2724 53.0650 2 26 998 -17.3054 52.9186 1 25 6 264
1985040S17054 1985 18 SI MM ESITERA 1985-02-10 00:00:00 TS -17.3127 52.7185 24 1000 reunion spur-split 303 275 _____O____P___ -1 -17.3000 52.8000 2 24 1000 2.00000 2.00000 -17.2983 52.5798 1 25 6 273
1985040S17054 1985 18 SI MM ESITERA 1985-02-10 03:00:00 TS -17.2777 52.3865 spur-split 275 251 _____P____P___ -1 -17.2802 52.4124 2 22 1001 -17.2670 52.3260 1 25 6 282
1985040S17054 1985 18 SI MM ESITERA 1985-02-10 06:00:00 TS -17.2000 52.1500 20 1003 reunion spur-split 251 237 _____O____O___ -1 -17.2000 52.1000 2 20 1003 1.50000 1.50000 -17.2000 52.2000 1 25 3 309
1985040S17054 1985 18 SI MM ESITERA 1985-02-10 09:00:00 TS -17.0752 52.1228 spur-split 237 231 _____P____P___ -1 -17.0574 52.0175 2 28 -17.0930 52.2281 1 3 17
1985040S17054 1985 18 SI MM ESITERA 1985-02-10 12:00:00 TS -16.9350 52.2365 36 reunion spur-split 235 235 _____O____P___ -1 -16.9000 52.1000 2 36 9.90000 -16.9699 52.3730 1 4 47
1985040S17054 1985 18 SI MM ESITERA 1985-02-10 15:00:00 TS -16.8122 52.4182 spur-split 250 250 _____P____P___ -1 -16.7625 52.2551 2 36 -16.8619 52.5813 1 4 65
1985040S17054 1985 18 SI MM ESITERA 1985-02-10 18:00:00 TS -16.7500 52.6500 36 reunion spur-split 274 274 _____O____O___ -1 -16.7000 52.5000 2 36 9.90000 -16.8000 52.8000 1 4 86
1985040S17054 1985 18 SI MM ESITERA 1985-02-10 21:00:00 TS -16.7850 52.8565 spur-split 298 298 _____P____P___ -1 -16.7701 52.8074 2 36 -16.7999 52.9056 1 4 108
1985040S17054 1985 18 SI MM ESITERA 1985-02-11 00:00:00 TS -16.8759 53.0590 36 reunion spur-split 322 322 _____O____P___ -1 -16.9000 53.1000 2 36 9.90000 -16.8519 53.0181 1 4 119
1985040S17054 1985 18 SI MM ESITERA 1985-02-11 03:00:00 TS -16.9689 53.2071 spur-split 337 337 _____P____P___ -1 -16.9848 53.2427 2 36 -16.9529 53.1715 1 4 124
1985040S17054 1985 18 SI MM ESITERA 1985-02-11 06:00:00 TS -17.1000 53.4000 36 reunion spur-split 361 361 _____O____O___ -1 -17.1000 53.4000 6 36 9.90000 -17.1000 53.4000 1 6 123
1985040S17054 1985 18 SI MM ESITERA 1985-02-11 09:00:00 TS -17.2859 53.7193 spur-split 399 399 _____P____P___ -1 -17.2803 53.7022 6 36 -17.2887 53.7278 1 8 120
1985040S17054 1985 18 SI MM ESITERA 1985-02-11 12:00:00 TS -17.5067 54.1288 36 reunion spur-split 411 376 _____O____P___ -1 -17.5000 54.1000 6 36 9.90000 -17.5090 54.1384 1 10 119
1985040S17054 1985 18 SI MM ESITERA 1985-02-11 15:00:00 NR -17.7498 54.6049 spur-split 376 336 __________P___ -1 6 -17.7498 54.6049 1 11 118
1985040S17054 1985 18 SI MM ESITERA 1985-02-11 18:00:00 NR -18.0000 55.1000 spur-split 336 __________O___ -1 -18.0000 55.1000 1 11 118

IBTrACS Databaseについて

本データベースは、米国NOAAが公開する1842年以降の世界の熱帯低気圧のベストトラックデータアーカイブInternational Best Track Archive for Climate Stewardship (IBTrACS)を、ウェブで閲覧しやすい形式に変換したものです。

最終更新日:2021-10-21